首页
METAR-TAF:

METAR-TAF

机场 :

Massena, 紐約州, 美国

纬度: 44-56-09N, 经度: 074-50-44W, 海拔: 66米

当前天气观测

该预报发布于47分钟前的18:53 UTC
风速16节,风向西转西北,有时为25节阵风
温度 -6°C
湿度 45%
气压 1026 hPa
能見度: 16.1公里
天空无云

METAR: KMSS 191853Z AUTO 30016G25KT 10SM CLR M06/M16 A3030 RMK AO2 PK WND 28027/1826 SLP266 T10611161

时间: 14:40 (19:40 UTC)

预报

该预报发布于2小时和8分钟前的17:32 UTC
预报有效从19日的 18点(UTC)到 20日的 18点(UTC)
风速20节,风向西,有时为30节阵风
能見度: 10公里
天空无云
从 20日的 0000点(UTC)
风速7节,风向西
能見度: 10公里
多云层高于6000英尺
从 20日的 1500点(UTC)
风速8节,风向西
能見度: 10公里
散云层高于6000英尺

TAF: KMSS 191732Z 1918/2018 28020G30KT P6SM SKC FM200000 28007KT P6SM BKN060 FM201500 28008KT P6SM SCT060

超过4000个机场的气象观测和天气预报(METAR&TAF报告)。

可查询的气象台以黄色和红色小点在地图上表示。

将鼠标移到小点上方,可查看气象台名称。

然后点击查看天气观测和预报。

如需切换地图:点击带黑十字的绿色按钮放大地图;点击带横线的绿色按钮缩小地图;或者点击绿色箭头查看邻近地区的地图。


METAR-TAF: